Time;durP1;ratioP1;P1;durP2;ratioP2;P2;SDS_P1;SDS_P2;PMS_P1;PMS_P2;Temp;Humidity;BMP_temperature;BMP_pressure;BME280_temperature;BME280_humidity;BME280_pressure;Samples;Min_cycle;Max_cycle;Signal;HPM_P1;HPM_P2
2022/07/05 00:00:08;;;;;;;3.67;3.38;;;;;;;14.82;87.98;102075.97;5027686;28;20415;-63
2022/07/05 00:02:33;;;;;;;4.03;3.67;;;;;;;14.80;88.55;102075.00;5027235;28;20524;-62
2022/07/05 00:04:59;;;;;;;6.85;3.92;;;;;;;14.76;89.33;102087.03;5014465;28;20125;-62
2022/07/05 00:07:24;;;;;;;4.60;3.30;;;;;;;14.73;89.65;102077.38;5027594;28;20385;-62
2022/07/05 00:09:54;;;;;;;6.45;3.70;;;;;;;14.64;90.55;102074.47;5027747;28;20033;-62
2022/07/05 00:12:26;;;;;;;4.07;3.60;;;;;;;14.58;91.87;102075.13;5027244;28;20040;-62
2022/07/05 00:14:51;;;;;;;4.28;3.28;;;;;;;14.52;91.52;102072.31;5027214;28;20025;-62
2022/07/05 00:17:17;;;;;;;4.45;3.10;;;;;;;14.46;92.07;102069.50;5027368;28;20029;-62
2022/07/05 00:19:42;;;;;;;17.33;4.72;;;;;;;14.38;92.57;102075.31;5026893;28;20037;-62
2022/07/05 00:22:07;;;;;;;4.63;4.13;;;;;;;14.35;92.94;102077.81;5027117;28;20037;-62
2022/07/05 00:24:33;;;;;;;4.82;3.67;;;;;;;14.32;93.49;102072.47;5027154;28;20492;-62
2022/07/05 00:26:58;;;;;;;5.88;4.72;;;;;;;14.28;93.56;102065.41;5026828;28;20039;-61
2022/07/05 00:29:23;;;;;;;4.85;4.35;;;;;;;14.21;93.99;102071.22;5027520;28;20109;-62
2022/07/05 00:31:49;;;;;;;4.65;3.75;;;;;;;14.18;94.32;102066.75;5027669;28;20181;-61
2022/07/05 00:34:14;;;;;;;4.07;3.78;;;;;;;14.14;94.75;102070.97;5027110;28;20033;-61
2022/07/05 00:36:40;;;;;;;5.82;3.90;;;;;;;14.11;94.61;102065.66;5027494;28;20481;-61
2022/07/05 00:39:06;;;;;;;4.38;3.92;;;;;;;14.11;95.09;102062.16;5027209;28;20037;-61
2022/07/05 00:41:31;;;;;;;5.80;3.80;;;;;;;14.08;95.07;102062.94;5026713;28;20075;-61
2022/07/05 00:43:59;;;;;;;4.80;3.58;;;;;;;14.04;95.44;102061.94;5027427;28;20116;-59
2022/07/05 00:46:26;;;;;;;4.95;3.58;;;;;;;14.02;95.55;102067.91;5027201;28;20206;-61
2022/07/05 00:48:51;;;;;;;4.43;3.60;;;;;;;13.99;96.23;102067.81;5026775;28;20022;-60
2022/07/05 00:51:17;;;;;;;4.22;3.80;;;;;;;13.92;96.36;102069.31;5017786;28;20120;-60
2022/07/05 00:53:45;;;;;;;5.18;3.70;;;;;;;13.90;96.25;102064.03;5020965;28;20033;-61
2022/07/05 00:56:12;;;;;;;4.40;3.97;;;;;;;13.87;96.42;102069.13;5015461;28;20071;-61
2022/07/05 00:58:38;;;;;;;4.60;4.20;;;;;;;13.84;96.51;102066.41;5026796;28;20060;-61
2022/07/05 01:01:05;;;;;;;5.47;4.32;;;;;;;13.79;97.60;102070.53;5027524;28;20065;-61
2022/07/05 01:03:31;;;;;;;4.75;4.18;;;;;;;13.74;97.93;102072.09;5018438;28;20033;-61
2022/07/05 01:05:58;;;;;;;5.25;4.70;;;;;;;13.69;97.51;102064.97;5021705;28;20337;-61
2022/07/05 01:08:24;;;;;;;5.90;3.75;;;;;;;13.70;97.67;102065.88;5027104;28;20044;-61
2022/07/05 01:10:51;;;;;;;9.10;4.05;;;;;;;13.66;97.59;102069.19;5026797;28;20029;-61
2022/07/05 01:13:16;;;;;;;8.32;3.95;;;;;;;13.60;98.45;102075.03;5026965;28;20242;-61
2022/07/05 01:15:42;;;;;;;3.92;3.63;;;;;;;13.52;98.95;102076.41;5027553;28;20060;-61
2022/07/05 01:18:07;;;;;;;3.70;3.40;;;;;;;13.43;99.63;102072.63;5026962;28;20065;-61
2022/07/05 01:20:33;;;;;;;5.13;4.18;;;;;;;13.38;99.69;102073.28;5026922;28;20076;-61
2022/07/05 01:23:01;;;;;;;4.25;3.92;;;;;;;13.38;99.77;102074.16;5027356;28;20032;-62
2022/07/05 01:25:29;;;;;;;5.57;4.63;;;;;;;13.33;100.00;102075.66;5027079;28;20118;-61
2022/07/05 01:27:56;;;;;;;5.50;4.68;;;;;;;13.29;100.00;102073.78;5030651;28;20030;-61
2022/07/05 01:30:21;;;;;;;7.25;4.28;;;;;;;13.25;100.00;102077.09;5030719;28;20033;-60
2022/07/05 01:32:47;;;;;;;4.18;3.80;;;;;;;13.21;100.00;102070.88;5022754;28;20531;-62
2022/07/05 01:35:14;;;;;;;6.68;4.15;;;;;;;13.21;100.00;102069.16;5027662;28;20103;-63
2022/07/05 01:37:40;;;;;;;5.07;4.30;;;;;;;13.24;100.00;102075.31;5030411;28;20376;-63
2022/07/05 01:40:07;;;;;;;4.38;3.97;;;;;;;13.20;100.00;102066.50;5029843;28;20075;-62
2022/07/05 01:42:33;;;;;;;4.45;4.05;;;;;;;13.19;100.00;102068.22;5030653;28;20119;-63
2022/07/05 01:44:58;;;;;;;5.28;4.40;;;;;;;13.15;100.00;102071.50;5030623;28;20494;-62
2022/07/05 01:47:24;;;;;;;5.15;3.83;;;;;;;13.11;100.00;102068.72;5029954;28;20571;-62
2022/07/05 01:49:52;;;;;;;4.32;3.70;;;;;;;13.09;100.00;102076.47;5029992;28;20477;-63
2022/07/05 01:52:20;;;;;;;4.68;4.15;;;;;;;13.04;100.00;102072.78;5025740;28;20179;-62
2022/07/05 01:54:45;;;;;;;5.20;4.50;;;;;;;13.01;100.00;102077.84;5020694;28;20747;-62
2022/07/05 01:57:11;;;;;;;4.72;4.28;;;;;;;13.02;100.00;102066.63;5030236;28;20033;-62
2022/07/05 01:59:37;;;;;;;5.85;5.25;;;;;;;12.98;100.00;102063.00;5029677;28;20455;-62
2022/07/05 02:02:04;;;;;;;4.72;4.38;;;;;;;12.90;100.00;102075.69;5030236;28;20029;-62
2022/07/05 02:04:29;;;;;;;4.78;4.38;;;;;;;12.86;100.00;102068.59;5012611;28;20026;-62
2022/07/05 02:06:55;;;;;;;4.90;4.35;;;;;;;12.81;100.00;102072.69;5030174;28;20026;-61
2022/07/05 02:09:21;;;;;;;7.00;4.57;;;;;;;12.80;100.00;102068.31;5029624;28;20025;-62
2022/07/05 02:11:46;;;;;;;4.70;4.28;;;;;;;12.81;100.00;102065.78;5029454;28;20037;-61
2022/07/05 02:14:11;;;;;;;6.05;4.53;;;;;;;12.84;100.00;102067.63;5030155;28;20389;-62
2022/07/05 02:16:37;;;;;;;6.03;4.60;;;;;;;12.84;100.00;102065.03;5029162;28;20033;-61
2022/07/05 02:19:02;;;;;;;5.65;5.13;;;;;;;12.83;100.00;102058.03;5029605;28;20076;-61
2022/07/05 02:21:28;;;;;;;6.15;5.55;;;;;;;12.82;100.00;102051.97;5029795;28;20029;-61
2022/07/05 02:23:53;;;;;;;6.63;5.32;;;;;;;12.80;100.00;102057.91;5029236;28;20034;-61
2022/07/05 02:26:18;;;;;;;5.65;5.20;;;;;;;12.73;100.00;102052.47;5029100;28;20029;-61
2022/07/05 02:28:45;;;;;;;7.07;5.40;;;;;;;12.71;100.00;102054.13;5029785;28;20103;-61
2022/07/05 02:31:10;;;;;;;5.55;5.05;;;;;;;12.64;100.00;102057.28;5029445;28;20056;-61
2022/07/05 02:33:35;;;;;;;5.75;5.15;;;;;;;12.62;100.00;102069.31;5029430;28;20057;-60
2022/07/05 02:36:09;;;;;;;5.22;4.78;;;;;;;12.59;100.00;102069.19;5029429;28;20025;-61
2022/07/05 02:38:34;;;;;;;5.55;5.05;;;;;;;12.57;100.00;102063.94;5028778;28;20442;-61
2022/07/05 02:41:00;;;;;;;5.78;5.03;;;;;;;12.55;100.00;102068.16;5029487;28;20064;-61
2022/07/05 02:43:25;;;;;;;6.72;5.25;;;;;;;12.54;100.00;102070.72;5029009;28;20029;-61
2022/07/05 02:45:50;;;;;;;6.85;6.20;;;;;;;12.55;100.00;102062.06;5029321;28;20025;-61
2022/07/05 02:48:15;;;;;;;6.85;6.13;;;;;;;12.54;100.00;102065.50;5029096;28;20033;-61
2022/07/05 02:50:41;;;;;;;6.88;6.25;;;;;;;12.54;100.00;102071.56;5028855;28;20396;-61
2022/07/05 02:53:06;;;;;;;7.10;6.47;;;;;;;12.55;100.00;102070.78;5029168;28;20029;-61
2022/07/05 02:55:31;;;;;;;6.60;6.00;;;;;;;12.46;100.00;102072.97;5029406;28;20029;-61
2022/07/05 02:57:57;;;;;;;7.38;6.53;;;;;;;12.42;100.00;102077.13;5029229;28;20051;-61
2022/07/05 03:00:23;;;;;;;7.78;6.63;;;;;;;12.38;100.00;102080.41;5029467;28;20053;-61
2022/07/05 03:02:48;;;;;;;8.85;7.18;;;;;;;12.33;100.00;102082.81;5025711;28;20484;-61
2022/07/05 03:05:14;;;;;;;6.85;6.25;;;;;;;12.28;100.00;102083.44;5017778;28;20452;-60
2022/07/05 03:07:39;;;;;;;6.35;5.68;;;;;;;12.26;100.00;102085.97;5028839;28;20394;-62
2022/07/05 03:10:05;;;;;;;6.80;6.25;;;;;;;12.22;100.00;102076.25;5029126;28;20025;-61
2022/07/05 03:12:30;;;;;;;9.02;7.05;;;;;;;12.18;100.00;102079.53;5028866;28;20025;-61
2022/07/05 03:14:55;;;;;;;7.20;6.47;;;;;;;12.17;100.00;102081.25;5027671;28;20041;-60
2022/07/05 03:17:20;;;;;;;7.78;7.00;;;;;;;12.14;100.00;102086.31;5027204;28;20029;-61
2022/07/05 03:19:46;;;;;;;8.05;6.70;;;;;;;12.13;100.00;102085.41;5013311;28;20375;-61
2022/07/05 03:22:11;;;;;;;7.70;7.00;;;;;;;12.16;100.00;102095.03;5027284;28;20029;-60
2022/07/05 03:24:36;;;;;;;8.98;7.13;;;;;;;12.13;100.00;102097.50;5012493;28;20038;-61
2022/07/05 03:27:02;;;;;;;8.20;7.32;;;;;;;12.10;100.00;102105.16;5026786;28;20108;-61
2022/07/05 03:29:27;;;;;;;8.20;7.50;;;;;;;12.05;100.00;102102.34;5026649;28;20036;-60
2022/07/05 03:31:52;;;;;;;8.63;7.82;;;;;;;11.97;100.00;102104.56;5024606;28;20404;-61
2022/07/05 03:34:17;;;;;;;8.18;7.55;;;;;;;11.93;100.00;102099.13;5027472;28;20033;-61
2022/07/05 03:36:43;;;;;;;8.60;7.80;;;;;;;11.93;100.00;102102.63;5027547;28;20454;-61
2022/07/05 03:39:08;;;;;;;8.32;7.55;;;;;;;11.92;100.00;102102.56;5020470;28;20046;-60
2022/07/05 03:41:33;;;;;;;9.30;8.02;;;;;;;11.95;100.00;102100.09;5021040;28;20025;-60
2022/07/05 03:43:58;;;;;;;8.57;7.78;;;;;;;11.94;100.00;102100.94;5027928;28;20056;-61
2022/07/05 03:46:24;;;;;;;9.90;8.90;;;;;;;11.93;100.00;102102.63;5028068;28;20031;-61
2022/07/05 03:48:49;;;;;;;8.68;7.78;;;;;;;11.95;100.00;102105.31;5026857;28;20100;-60
2022/07/05 03:51:14;;;;;;;9.85;8.73;;;;;;;11.96;100.00;102107.97;5027665;28;20025;-61
2022/07/05 03:53:39;;;;;;;9.07;8.27;;;;;;;11.98;100.00;102106.34;5027773;28;20025;-61
2022/07/05 03:56:05;;;;;;;9.30;8.50;;;;;;;11.96;100.00;102112.28;5028193;28;20021;-61
2022/07/05 03:58:30;;;;;;;9.88;8.98;;;;;;;11.92;100.00;102111.25;5027781;28;20527;-61
2022/07/05 04:00:55;;;;;;;10.63;9.52;;;;;;;11.93;100.00;102110.44;5027891;28;20038;-60
2022/07/05 04:03:21;;;;;;;11.00;9.40;;;;;;;11.98;100.00;102119.31;5028118;28;20478;-62
2022/07/05 04:05:46;;;;;;;9.82;8.93;;;;;;;12.01;100.00;102124.69;5027668;28;20037;-60
2022/07/05 04:08:11;;;;;;;13.05;10.07;;;;;;;12.04;100.00;102121.31;5027334;28;20029;-61
2022/07/05 04:10:36;;;;;;;10.18;9.10;;;;;;;12.05;100.00;102122.22;5027776;28;20029;-61
2022/07/05 04:13:02;;;;;;;9.88;9.07;;;;;;;12.08;100.00;102127.56;5027995;28;20236;-59
2022/07/05 04:15:27;;;;;;;9.80;8.90;;;;;;;12.11;100.00;102122.53;5027211;28;20039;-62
2022/07/05 04:17:54;;;;;;;9.45;8.65;;;;;;;12.17;100.00;102132.31;5027457;28;20052;-61
2022/07/05 04:20:24;;;;;;;10.10;9.10;;;;;;;12.22;100.00;102131.72;5027169;28;20029;-60
2022/07/05 04:22:50;;;;;;;12.05;9.18;;;;;;;12.28;100.00;102132.81;5027475;28;20033;-61
2022/07/05 04:25:18;;;;;;;10.98;9.98;;;;;;;12.29;100.00;102121.56;5026859;28;20029;-61
2022/07/05 04:27:48;;;;;;;9.75;8.85;;;;;;;12.37;100.00;102125.44;5027599;28;20057;-62
2022/07/05 04:30:15;;;;;;;12.02;9.93;;;;;;;12.43;100.00;102135.22;5027416;28;20028;-61
2022/07/05 04:32:40;;;;;;;11.73;10.63;;;;;;;12.51;100.00;102127.75;5027203;28;20045;-61
2022/07/05 04:35:06;;;;;;;11.55;10.35;;;;;;;12.56;100.00;102127.13;5026877;28;20118;-61
2022/07/05 04:37:32;;;;;;;11.95;10.82;;;;;;;12.58;100.00;102127.19;5027278;28;20033;-61
2022/07/05 04:39:57;;;;;;;11.77;10.75;;;;;;;12.63;100.00;102135.22;5013041;28;20429;-62
2022/07/05 04:42:22;;;;;;;13.23;10.88;;;;;;;12.67;100.00;102127.63;5027706;28;20109;-61
2022/07/05 04:44:48;;;;;;;11.10;10.13;;;;;;;12.72;100.00;102133.00;5026944;28;20036;-61
2022/07/05 04:47:13;;;;;;;11.93;10.75;;;;;;;12.76;100.00;102131.44;5027094;28;20021;-61
2022/07/05 04:49:38;;;;;;;13.75;10.50;;;;;;;12.80;100.00;102130.75;5027078;28;20033;-61
2022/07/05 04:52:04;;;;;;;11.63;10.30;;;;;;;12.84;100.00;102133.53;5013323;28;20033;-61
2022/07/05 04:54:29;;;;;;;11.15;10.07;;;;;;;12.91;100.00;102121.72;5027537;28;20024;-60
2022/07/05 04:56:54;;;;;;;11.35;10.05;;;;;;;12.98;100.00;102125.47;5026840;28;20044;-61
2022/07/05 04:59:20;;;;;;;11.18;10.10;;;;;;;13.06;100.00;102120.59;5013357;28;20128;-61
2022/07/05 05:01:45;;;;;;;13.65;10.10;;;;;;;13.15;100.00;102128.75;5029460;28;20205;-61
2022/07/05 05:04:10;;;;;;;9.93;9.02;;;;;;;13.24;100.00;102123.03;5017445;28;20393;-61
2022/07/05 05:06:35;;;;;;;10.25;9.35;;;;;;;13.32;100.00;102115.56;5030731;28;20432;-61
2022/07/05 05:09:01;;;;;;;11.45;9.65;;;;;;;13.37;100.00;102114.03;5030577;28;20477;-61
2022/07/05 05:11:26;;;;;;;10.95;9.70;;;;;;;13.41;100.00;102120.25;5030766;28;20029;-60
2022/07/05 05:13:51;;;;;;;9.90;9.02;;;;;;;13.47;100.00;102124.81;5030943;28;20040;-60
2022/07/05 05:16:17;;;;;;;9.80;8.80;;;;;;;13.53;100.00;102119.88;5030497;28;20544;-60
2022/07/05 05:18:42;;;;;;;11.18;10.07;;;;;;;13.60;100.00;102123.66;5030902;28;20025;-61
2022/07/05 05:21:07;;;;;;;12.45;9.98;;;;;;;13.67;100.00;102126.53;5031019;28;20034;-61
2022/07/05 05:23:32;;;;;;;10.02;8.88;;;;;;;13.74;100.00;102134.59;5030243;28;20049;-61
2022/07/05 05:25:58;;;;;;;10.70;9.70;;;;;;;13.77;100.00;102137.31;5030788;28;20091;-60
2022/07/05 05:28:23;;;;;;;11.45;10.30;;;;;;;13.84;100.00;102136.75;5027463;28;20053;-60
2022/07/05 05:30:48;;;;;;;10.48;9.48;;;;;;;13.91;100.00;102128.34;5019912;28;20836;-60
2022/07/05 05:33:14;;;;;;;11.85;10.70;;;;;;;13.99;100.00;102127.75;5030395;28;20153;-61
2022/07/05 05:35:39;;;;;;;10.55;9.55;;;;;;;14.08;100.00;102129.81;5029942;28;20052;-61
2022/07/05 05:38:04;;;;;;;10.32;9.32;;;;;;;14.13;100.00;102134.38;5030525;28;20029;-61
2022/07/05 05:40:30;;;;;;;10.57;9.52;;;;;;;14.24;100.00;102147.81;5030144;28;20054;-61
2022/07/05 05:42:56;;;;;;;9.55;8.18;;;;;;;14.37;100.00;102154.34;5030605;28;20435;-61
2022/07/05 05:45:22;;;;;;;9.10;8.25;;;;;;;14.50;100.00;102150.50;5030414;28;20025;-61
2022/07/05 05:47:56;;;;;;;11.90;9.60;;;;;;;14.62;100.00;102150.06;5030592;28;20033;-62
2022/07/05 05:50:27;;;;;;;9.48;8.57;;;;;;;14.73;100.00;102158.25;5029505;28;20022;-61
2022/07/05 05:52:53;;;;;;;;;;;;;;;14.84;100.00;102161.28;5030761;28;20036;-61
2022/07/05 05:55:20;;;;;;;10.75;8.57;;;;;;;14.95;100.00;102168.63;5030230;28;19921;-62
2022/07/05 05:57:45;;;;;;;14.07;10.00;;;;;;;15.04;100.00;102168.91;5030008;28;20062;-61
2022/07/05 06:00:11;;;;;;;10.63;8.77;;;;;;;15.07;100.00;102169.06;5029755;28;20444;-61
2022/07/05 06:02:37;;;;;;;10.48;9.38;;;;;;;15.11;100.00;102165.69;5028572;28;20057;-61
2022/07/05 06:05:03;;;;;;;11.60;10.23;;;;;;;15.18;100.00;102160.69;5017174;28;20108;-61
2022/07/05 06:07:28;;;;;;;10.73;9.52;;;;;;;15.23;100.00;102169.56;5029641;28;20095;-60
2022/07/05 06:09:54;;;;;;;10.73;9.73;;;;;;;15.30;100.00;102176.78;5030057;28;20660;-62
2022/07/05 06:12:19;;;;;;;10.82;9.70;;;;;;;15.31;100.00;102172.44;5029745;28;20069;-61
2022/07/05 06:14:44;;;;;;;11.32;8.80;;;;;;;15.38;100.00;102170.91;5029389;28;20024;-61
2022/07/05 06:17:09;;;;;;;10.15;9.27;;;;;;;15.46;100.00;102174.66;5029398;28;20018;-60
2022/07/05 06:19:35;;;;;;;10.13;9.00;;;;;;;15.52;99.88;102172.25;5029610;28;20041;-61
2022/07/05 06:22:00;;;;;;;10.63;9.63;;;;;;;15.63;98.89;102176.94;5029585;28;20037;-62
2022/07/05 06:24:25;;;;;;;10.25;9.35;;;;;;;15.71;98.44;102173.75;5029490;28;20025;-62
2022/07/05 06:26:51;;;;;;;10.50;8.52;;;;;;;15.82;97.87;102175.78;5029285;28;20029;-61
2022/07/05 06:29:16;;;;;;;10.95;8.85;;;;;;;15.88;95.89;102176.00;5029537;28;20034;-61
2022/07/05 06:31:41;;;;;;;10.13;8.38;;;;;;;15.96;94.99;102184.06;5029142;28;20030;-62
2022/07/05 06:34:07;;;;;;;9.73;8.30;;;;;;;15.91;94.10;102177.81;5029744;28;20546;-61
2022/07/05 06:36:32;;;;;;;11.43;8.18;;;;;;;15.91;93.62;102177.81;5029949;28;20124;-61
2022/07/05 06:38:57;;;;;;;11.35;8.73;;;;;;;15.99;93.64;102184.19;5028996;28;20072;-60
2022/07/05 06:41:23;;;;;;;7.72;7.03;;;;;;;16.17;93.82;102183.84;5028882;28;20425;-62
2022/07/05 06:43:48;;;;;;;11.30;8.35;;;;;;;16.35;93.67;102187.88;5029310;28;20018;-62
2022/07/05 06:46:13;;;;;;;9.93;7.72;;;;;;;16.45;93.08;102186.41;5029235;28;20100;-62
2022/07/05 06:48:39;;;;;;;9.25;7.45;;;;;;;16.57;92.38;102188.47;5029066;28;20049;-61
2022/07/05 06:51:04;;;;;;;12.82;8.00;;;;;;;16.64;91.85;102198.28;5029039;28;20083;-60
2022/07/05 06:53:30;;;;;;;6.88;6.15;;;;;;;16.76;91.02;102189.91;5029067;28;20028;-62
2022/07/05 06:55:55;;;;;;;7.78;6.93;;;;;;;16.86;89.01;102190.13;5028070;28;20104;-62
2022/07/05 06:58:20;;;;;;;8.20;6.25;;;;;;;16.97;88.56;102188.72;5029101;28;20026;-62
2022/07/05 07:00:46;;;;;;;8.07;5.97;;;;;;;17.13;87.57;102186.53;5028563;28;20065;-61
2022/07/05 07:03:11;;;;;;;9.48;7.95;;;;;;;17.22;84.87;102181.53;5023743;28;20025;-61
2022/07/05 07:05:36;;;;;;;9.07;8.27;;;;;;;17.27;82.38;102182.53;5020313;28;20025;-62
2022/07/05 07:10:47;;;;;;;8.57;7.68;;;;;;;17.48;83.05;102191.78;5026855;28;20443;-61
2022/07/05 07:13:13;;;;;;;8.25;7.45;;;;;;;17.62;82.67;102188.59;5028502;28;20025;-62
2022/07/05 07:15:39;;;;;;;8.70;6.78;;;;;;;17.75;82.56;102188.03;5028418;28;20021;-60
2022/07/05 07:18:04;;;;;;;8.68;7.85;;;;;;;17.84;81.25;102189.13;5028108;28;20021;-61
2022/07/05 07:20:30;;;;;;;9.45;7.53;;;;;;;18.04;81.22;102191.31;5028336;28;20096;-62
2022/07/05 07:22:55;;;;;;;7.43;6.72;;;;;;;18.11;81.83;102193.22;5027968;28;20110;-61
2022/07/05 07:25:20;;;;;;;8.60;5.63;;;;;;;18.16;81.59;102203.84;5027906;28;20021;-61
2022/07/05 07:27:49;;;;;;;6.95;6.10;;;;;;;18.07;82.00;102191.38;5028099;28;20041;-62
2022/07/05 07:30:16;;;;;;;5.55;4.40;;;;;;;18.08;82.84;102191.41;5027928;28;20518;-62
2022/07/05 07:32:42;;;;;;;7.97;4.90;;;;;;;18.10;83.27;102196.69;5028072;28;20052;-62
2022/07/05 07:35:08;;;;;;;8.32;4.80;;;;;;;18.17;85.51;102196.00;5028091;28;20473;-62
2022/07/05 07:37:34;;;;;;;7.03;5.20;;;;;;;18.04;83.05;102199.19;5019707;28;20060;-61
2022/07/05 07:40:01;;;;;;;9.88;6.22;;;;;;;18.06;83.79;102207.97;5022435;28;20076;-62
2022/07/05 07:42:27;;;;;;;7.22;4.80;;;;;;;18.00;84.45;102206.97;5028091;28;20021;-63
2022/07/05 07:44:52;;;;;;;7.25;4.70;;;;;;;17.88;84.73;102210.19;5028378;28;20045;-62
2022/07/05 07:47:17;;;;;;;7.25;3.83;;;;;;;17.92;85.91;102213.78;5028235;28;20021;-63
2022/07/05 07:49:43;;;;;;;13.63;7.47;;;;;;;17.87;83.75;102211.06;5028191;28;20163;-62
2022/07/05 07:52:08;;;;;;;10.48;6.95;;;;;;;17.86;84.81;102203.16;5027430;28;20078;-62
2022/07/05 07:54:33;;;;;;;8.60;5.93;;;;;;;17.98;85.63;102206.06;5028164;28;20072;-63
2022/07/05 07:57:04;;;;;;;6.30;5.15;;;;;;;18.13;85.06;102207.25;5028125;28;20030;-62
2022/07/05 07:59:29;;;;;;;8.68;4.95;;;;;;;18.28;84.77;102208.44;5027832;28;20034;-62
2022/07/05 08:01:54;;;;;;;9.55;5.60;;;;;;;18.41;84.85;102202.63;5027449;28;20056;-61
2022/07/05 08:04:20;;;;;;;7.28;5.68;;;;;;;18.56;84.58;102207.31;5014135;28;20144;-62
2022/07/05 08:06:45;;;;;;;9.93;5.28;;;;;;;18.57;84.07;102202.94;5028310;28;20091;-61
2022/07/05 08:09:12;;;;;;;10.60;5.60;;;;;;;18.68;84.14;102213.66;5028329;28;20469;-61
2022/07/05 08:11:37;;;;;;;6.32;3.85;;;;;;;18.79;83.84;102208.63;5027355;28;20469;-62
2022/07/05 08:14:03;;;;;;;10.73;6.82;;;;;;;18.79;82.03;102203.38;5028002;28;20025;-62
2022/07/05 08:16:28;;;;;;;7.85;5.05;;;;;;;18.80;80.95;102208.63;5027602;28;20017;-62
2022/07/05 08:21:38;;;;;;;9.07;5.20;;;;;;;18.76;81.16;102209.47;5027280;28;20056;-62
2022/07/05 08:24:08;;;;;;;6.30;5.32;;;;;;;18.88;80.96;102208.81;5027582;28;20037;-62
2022/07/05 08:26:33;;;;;;;7.70;5.05;;;;;;;18.99;81.73;102216.00;5027208;28;20029;-62
2022/07/05 08:29:01;;;;;;;10.18;5.45;;;;;;;19.11;81.45;102213.59;5027772;28;20025;-61
2022/07/05 08:31:27;;;;;;;8.13;5.35;;;;;;;19.19;82.22;102213.78;5027735;28;20112;-61
2022/07/05 08:33:53;;;;;;;8.27;5.07;;;;;;;19.36;79.79;102216.69;5027559;28;20029;-61
2022/07/05 08:36:18;;;;;;;9.73;6.45;;;;;;;19.34;79.85;102209.63;5026985;28;20104;-61
2022/07/05 08:38:43;;;;;;;9.18;5.82;;;;;;;19.47;79.21;102213.34;5027061;28;20444;-60
2022/07/05 08:41:10;;;;;;;9.70;5.88;;;;;;;19.67;79.22;102211.94;5027454;28;20036;-61
2022/07/05 08:43:44;;;;;;;7.20;4.93;;;;;;;19.92;78.41;102212.31;5027856;28;20055;-62
2022/07/05 08:46:11;;;;;;;10.57;6.70;;;;;;;20.19;78.29;102214.44;5027406;28;20472;-62
2022/07/05 08:48:43;;;;;;;8.80;7.22;;;;;;;20.30;75.98;102212.84;5026817;28;20080;-62
2022/07/05 08:51:14;;;;;;;8.95;6.72;;;;;;;20.37;76.80;102209.44;5027390;28;20026;-63
2022/07/05 08:53:41;;;;;;;9.85;6.30;;;;;;;20.40;76.24;102214.72;5027433;28;20025;-62
2022/07/05 08:56:08;;;;;;;10.10;8.32;;;;;;;20.39;74.47;102205.06;5027327;28;20115;-62
2022/07/05 08:58:34;;;;;;;9.73;7.15;;;;;;;20.45;76.02;102206.91;5026844;28;20347;-62
2022/07/05 09:01:00;;;;;;;9.60;7.28;;;;;;;20.50;74.56;102205.19;5027275;28;20029;-61
2022/07/05 09:03:33;;;;;;;8.88;6.60;;;;;;;20.61;73.78;102209.69;5019817;28;20108;-62
2022/07/05 09:06:00;;;;;;;7.47;4.93;;;;;;;21.03;76.21;102204.91;5022168;28;20464;-62
2022/07/05 09:08:28;;;;;;;8.88;5.60;;;;;;;21.37;69.91;102206.09;5026558;28;20029;-62
2022/07/05 09:10:53;;;;;;;7.75;5.03;;;;;;;21.79;71.55;102209.91;5027203;28;20021;-61
2022/07/05 09:13:18;;;;;;;7.65;4.57;;;;;;;22.10;68.18;102211.00;5026887;28;20760;-62
2022/07/05 09:15:44;;;;;;;8.93;5.00;;;;;;;22.30;66.69;102214.63;5026681;28;20026;-62
2022/07/05 09:18:10;;;;;;;7.32;4.30;;;;;;;22.37;66.07;102215.53;5026851;28;20021;-62
2022/07/05 09:20:35;;;;;;;8.50;6.38;;;;;;;22.07;65.73;102217.16;5027244;28;20030;-62
2022/07/05 09:23:01;;;;;;;5.55;3.92;;;;;;;22.04;63.85;102211.84;5026857;28;20099;-62
2022/07/05 09:25:31;;;;;;;6.47;4.30;;;;;;;21.95;63.47;102212.66;5026914;28;20761;-63
2022/07/05 09:28:02;;;;;;;6.70;4.80;;;;;;;21.87;64.01;102215.28;5026582;28;20034;-62
2022/07/05 09:30:37;;;;;;;4.68;4.03;;;;;;;21.75;63.08;102210.75;5027151;28;20461;-62
2022/07/05 09:33:15;;;;;;;7.68;3.30;;;;;;;21.88;64.18;102200.31;5027274;28;20484;-62
2022/07/05 09:35:56;;;;;;;9.88;4.25;;;;;;;22.09;63.45;102217.16;5014082;28;20428;-63
2022/07/05 09:38:22;;;;;;;;;;;;;;;22.45;61.51;102204.13;5026922;28;20025;-62
2022/07/05 09:40:54;;;;;;;4.20;2.83;;;;;;;22.76;61.71;102206.88;5019323;28;20191;-62
2022/07/05 09:43:27;;;;;;;4.30;2.42;;;;;;;22.83;59.60;102202.50;5020577;28;20476;-62
2022/07/05 09:46:02;;;;;;;5.70;2.30;;;;;;;22.87;56.55;102199.84;5026863;28;20018;-62
2022/07/05 09:48:33;;;;;;;6.53;3.58;;;;;;;22.71;57.51;102201.59;5029871;28;20036;-62
2022/07/05 09:51:12;;;;;;;3.47;2.40;;;;;;;23.02;58.24;102199.00;5029813;28;20034;-62
2022/07/05 09:53:48;;;;;;;6.38;4.60;;;;;;;22.98;57.72;102197.22;5029889;28;20103;-62
2022/07/05 09:56:16;;;;;;;4.32;3.92;;;;;;;22.77;56.68;102193.66;5030358;28;20025;-62
2022/07/05 09:58:41;;;;;;;4.30;2.83;;;;;;;22.64;55.93;102198.06;5029612;28;20030;-63
2022/07/05 10:01:23;;;;;;;6.57;2.97;;;;;;;22.37;54.96;102188.22;5030202;28;20039;-63
2022/07/05 10:03:57;;;;;;;3.40;2.67;;;;;;;22.12;56.72;102193.41;5019203;28;20060;-63
2022/07/05 10:06:24;;;;;;;5.38;3.05;;;;;;;21.97;58.56;102187.19;5027398;28;20432;-63
2022/07/05 10:08:50;;;;;;;5.32;2.70;;;;;;;21.82;60.09;102188.00;5029766;28;20029;-63
2022/07/05 10:11:18;;;;;;;5.00;2.70;;;;;;;21.73;58.72;102195.81;5030107;28;20031;-63
2022/07/05 10:13:47;;;;;;;4.70;2.45;;;;;;;21.70;59.57;102192.28;5029762;28;20469;-62
2022/07/05 10:16:13;;;;;;;2.83;2.42;;;;;;;21.68;57.68;102187.84;5029358;28;20075;-63
2022/07/05 10:18:40;;;;;;;4.70;2.25;;;;;;;21.69;59.72;102201.06;5027699;28;20131;-63
2022/07/05 10:21:12;;;;;;;4.70;2.92;;;;;;;21.69;59.54;102200.19;5029735;28;20528;-62
2022/07/05 10:23:38;;;;;;;6.50;2.78;;;;;;;21.62;60.25;102208.91;5030269;28;20056;-62
2022/07/05 10:26:05;;;;;;;5.22;3.20;;;;;;;21.54;61.67;102209.75;5029895;28;20144;-63
2022/07/05 10:28:32;;;;;;;5.50;3.92;;;;;;;21.43;61.47;102214.91;5028843;28;20124;-63
2022/07/05 10:30:59;;;;;;;5.63;4.32;;;;;;;21.35;62.44;102206.06;5029815;28;20033;-62
2022/07/05 10:33:26;;;;;;;7.75;4.82;;;;;;;21.30;62.69;102206.03;5029104;28;20024;-62
2022/07/05 10:35:53;;;;;;;6.15;3.78;;;;;;;21.30;64.15;102203.38;5029857;28;20485;-62
2022/07/05 10:38:19;;;;;;;6.55;3.92;;;;;;;21.47;64.98;102215.84;5029471;28;20045;-62
2022/07/05 10:40:54;;;;;;;4.45;3.60;;;;;;;21.89;66.48;102210.00;5028652;28;20140;-63
2022/07/05 10:43:22;;;;;;;7.82;3.90;;;;;;;22.37;64.38;102212.00;5029730;28;20033;-62
2022/07/05 10:45:49;;;;;;;5.20;4.65;;;;;;;22.73;59.93;102213.03;5029442;28;20037;-62
2022/07/05 10:48:28;;;;;;;6.88;4.50;;;;;;;22.85;58.52;102200.72;5029168;28;20107;-63
2022/07/05 10:50:55;;;;;;;6.53;3.92;;;;;;;22.82;58.01;102196.31;5029223;28;20036;-63
2022/07/05 10:53:25;;;;;;;4.93;3.72;;;;;;;22.71;58.26;102198.03;5028554;28;20029;-63
2022/07/05 10:56:05;;;;;;;6.40;4.38;;;;;;;22.44;58.13;102195.31;5028934;28;20140;-63
2022/07/05 10:58:36;;;;;;;5.20;3.47;;;;;;;22.38;59.42;102201.44;5029209;28;20515;-63
2022/07/05 11:01:19;;;;;;;;;;;;;;;22.64;61.78;102199.81;5028904;28;20108;-62
2022/07/05 11:04:00;;;;;;;3.10;2.78;;;;;;;23.03;61.61;102200.75;5018682;28;19909;-62
2022/07/05 11:06:38;;;;;;;7.05;3.30;;;;;;;23.47;61.04;102200.81;5027433;28;20633;-62
2022/07/05 11:09:03;;;;;;;3.63;3.30;;;;;;;23.71;55.92;102201.63;5028902;28;20044;-63
2022/07/05 11:11:30;;;;;;;4.60;3.35;;;;;;;23.76;55.10;102204.28;5028308;28;20030;-63
2022/07/05 11:14:00;;;;;;;3.33;2.55;;;;;;;23.54;53.44;102203.44;5028515;28;20068;-63
2022/07/05 11:16:28;;;;;;;4.40;2.17;;;;;;;23.26;54.28;102207.81;5028942;28;20021;-63
2022/07/05 11:19:21;;;;;;;4.22;2.08;;;;;;;22.89;53.19;102202.50;5029046;28;20036;-63
2022/07/05 11:22:07;;;;;;;3.85;1.50;;;;;;;22.61;54.24;102202.41;5029005;28;20152;-62